Lardero, Spain
Current Conditions -  °F | °C
As of 1:00 PM on Friday 19 Dec 2014 (Local Time) from LELO Reporting Station
Few Clouds Few Clouds  
Wind Chill: 42°   Ceiling: Unl
Heat Index: 48°   Visibility: 6mi
Dew Point: 43°   Wind: 16mph
Humidity: 82%   Direction: 280°W
Pressure: 30.45"   Gusts: NA
Location:  42.43°N, 2.46°W
Report Text: LELO 191200Z 28014KT 260V320 9999 FEW020 09/06 Q1031
Loading
Personal Weather Stations






























Interactive Weather Map New forecast layout! Learn more

10-Day Weather Forecast

Advertisements
Track Severe Weather on mobile